Terminal Aerodrome Forecast
Issued by NWS

Home | Current Version | Previous Version | Text Only | Print | Product List | Glossary On
Versions: 1 2 3 4 5 6 7 8 9 10 11 12 13 14 15 16 17 18 19 20 21 22 23 24 25 26 27 28 29 30 31 32 33 34 35 36 37 38 39 40 41 42 43 44 45 46 47 48 49 50
000
FTUS44 KHGX 290531
TAFIAH
TAF
KIAH 290531Z 2906/3012 17005KT P6SM SCT020 BKN250
     FM291000 VRB04KT P6SM VCTS BKN015CB BKN250
      TEMPO 2913/2915 VRB35KT 3SM TSRA BKN015CB
     FM291600 15008KT P6SM SCT030 BKN250
     FM291900 12011KT P6SM VCTS BKN035CB
     FM300000 14008KT P6SM BKN030=

USA.gov is the U.S. government's official web portal to all federal, state and local government web resources and services.